createdAt,value
2019-03-20T00:01:46.875Z,101901.73
2019-03-20T00:04:18.515Z,101906.39
2019-03-20T00:06:49.776Z,101911.55
2019-03-20T00:09:21.148Z,101906.77
2019-03-20T00:11:52.642Z,101907.33
2019-03-20T00:14:24.527Z,101906.95
2019-03-20T00:16:55.878Z,101910.14
2019-03-20T00:19:27.359Z,101907.30
2019-03-20T00:21:58.778Z,101903.36
2019-03-20T00:24:30.174Z,101900.69
2019-03-20T00:27:01.593Z,101901.59
2019-03-20T00:29:32.852Z,101899.97
2019-03-20T00:32:04.967Z,101897.42
2019-03-20T00:34:36.314Z,101891.75
2019-03-20T00:37:07.828Z,101896.14
2019-03-20T00:39:39.114Z,101900.22
2019-03-20T00:42:10.907Z,101895.42
2019-03-20T00:44:42.171Z,101893.73
2019-03-20T00:47:13.470Z,101890.02
2019-03-20T00:49:44.767Z,101890.20
2019-03-20T00:52:16.072Z,101883.25
2019-03-20T00:54:47.472Z,101884.91
2019-03-20T00:57:18.818Z,101878.69
2019-03-20T00:59:50.150Z,101885.62
2019-03-20T01:02:21.575Z,101885.33
2019-03-20T01:04:52.901Z,101889.38
2019-03-20T01:07:24.115Z,101890.03
2019-03-20T01:09:55.412Z,101890.92
2019-03-20T01:12:26.888Z,101888.81
2019-03-20T01:14:58.215Z,101889.75
2019-03-20T01:17:29.382Z,101885.39
2019-03-20T01:20:00.812Z,101887.45
2019-03-20T01:22:33.343Z,101890.20
2019-03-20T01:25:07.047Z,101894.98
2019-03-20T01:27:38.298Z,101893.22
2019-03-20T01:30:15.161Z,101893.28
2019-03-20T01:32:46.245Z,101896.56
2019-03-20T01:35:23.802Z,101892.20
2019-03-20T01:37:52.500Z,101884.66
2019-03-20T01:40:24.143Z,101886.50
2019-03-20T01:42:55.364Z,101885.19
2019-03-20T01:45:26.749Z,101884.77
2019-03-20T01:47:59.520Z,101886.58
2019-03-20T01:50:30.929Z,101885.77
2019-03-20T01:53:03.825Z,101892.91
2019-03-20T01:55:34.958Z,101896.98
2019-03-20T01:58:06.202Z,101891.32
2019-03-20T02:00:37.853Z,101893.63
2019-03-20T02:03:09.653Z,101892.68
2019-03-20T02:05:40.835Z,101893.37
2019-03-20T02:08:13.010Z,101895.44
2019-03-20T02:10:44.376Z,101892.48
2019-03-20T02:13:15.627Z,101888.97
2019-03-20T02:15:50.379Z,101888.89
2019-03-20T02:18:21.577Z,101893.77
2019-03-20T02:20:52.948Z,101896.70
2019-03-20T02:23:24.171Z,101894.50
2019-03-20T02:25:57.136Z,101891.04
2019-03-20T02:28:28.435Z,101889.67
2019-03-20T02:30:59.730Z,101888.97
2019-03-20T02:33:30.916Z,101888.88
2019-03-20T02:36:02.278Z,101896.84
2019-03-20T02:38:33.562Z,101902.72
2019-03-20T02:41:05.011Z,101899.38
2019-03-20T02:43:36.333Z,101904.05
2019-03-20T02:46:07.531Z,101908.22
2019-03-20T02:48:38.951Z,101910.41
2019-03-20T02:51:10.232Z,101912.96
2019-03-20T02:53:41.611Z,101909.42
2019-03-20T02:56:12.852Z,101907.64
2019-03-20T02:58:44.226Z,101915.06
2019-03-20T03:01:15.508Z,101915.55
2019-03-20T03:03:46.890Z,101911.19
2019-03-20T03:06:18.227Z,101906.38
2019-03-20T03:08:52.274Z,101912.49
2019-03-20T03:11:23.726Z,101916.42
2019-03-20T03:13:55.018Z,101917.31
2019-03-20T03:16:26.483Z,101920.45
2019-03-20T03:18:57.951Z,101922.29
2019-03-20T03:21:29.393Z,101921.52
2019-03-20T03:24:00.640Z,101926.24
2019-03-20T03:26:32.143Z,101929.63
2019-03-20T03:29:03.520Z,101926.80
2019-03-20T03:31:35.419Z,101928.21
2019-03-20T03:34:06.618Z,101932.09
2019-03-20T03:36:37.885Z,101931.63
2019-03-20T03:39:12.618Z,101934.72
2019-03-20T03:41:44.079Z,101943.48
2019-03-20T03:44:15.613Z,101944.81
2019-03-20T03:46:47.609Z,101942.98
2019-03-20T03:49:19.137Z,101944.33
2019-03-20T03:51:51.407Z,101939.55
2019-03-20T03:54:22.686Z,101939.65
2019-03-20T03:56:54.310Z,101949.24
2019-03-20T03:59:25.668Z,101947.99
2019-03-20T04:01:58.632Z,101952.73
2019-03-20T04:04:29.941Z,101951.63
2019-03-20T04:07:01.560Z,101954.97
2019-03-20T04:09:33.878Z,101953.96
2019-03-20T04:12:22.113Z,101951.59
2019-03-20T04:14:53.861Z,101955.02
2019-03-20T04:17:28.459Z,101958.06
2019-03-20T04:19:59.823Z,101958.87
2019-03-20T04:22:31.124Z,101961.11
2019-03-20T04:25:04.039Z,101967.68
2019-03-20T04:27:35.517Z,101965.91
2019-03-20T04:30:09.791Z,101960.62
2019-03-20T04:32:41.077Z,101968.06
2019-03-20T04:35:13.347Z,101964.12
2019-03-20T04:37:44.833Z,101961.56
2019-03-20T04:40:18.337Z,101964.25
2019-03-20T04:42:49.490Z,101962.06
2019-03-20T04:45:20.742Z,101964.25
2019-03-20T04:47:52.035Z,101965.70
2019-03-20T04:50:23.590Z,101973.57
2019-03-20T04:53:00.844Z,101980.13
2019-03-20T04:55:32.277Z,101974.12
2019-03-20T04:58:03.974Z,101978.59
2019-03-20T05:00:35.207Z,101982.92
2019-03-20T05:03:07.646Z,101986.47
2019-03-20T05:05:38.963Z,101990.88
2019-03-20T05:08:10.276Z,101985.21
2019-03-20T05:10:43.018Z,101984.31
2019-03-20T05:13:14.119Z,101987.44
2019-03-20T05:15:46.354Z,101989.17
2019-03-20T05:18:17.978Z,101994.78
2019-03-20T05:20:49.641Z,101997.36
2019-03-20T05:23:20.831Z,101993.50
2019-03-20T05:25:52.147Z,102000.05
2019-03-20T05:28:24.299Z,102000.85
2019-03-20T05:30:55.699Z,102005.27
2019-03-20T05:33:27.335Z,101999.70
2019-03-20T05:35:59.686Z,102005.77
2019-03-20T05:38:31.013Z,102007.88
2019-03-20T05:41:03.198Z,102007.42
2019-03-20T05:43:35.804Z,102007.77
2019-03-20T05:46:08.061Z,102002.95
2019-03-20T05:48:39.477Z,102008.20
2019-03-20T05:51:11.451Z,102001.75
2019-03-20T05:53:44.062Z,102010.59
2019-03-20T05:56:15.321Z,102005.29
2019-03-20T05:58:46.539Z,102000.90
2019-03-20T06:01:17.870Z,102007.84
2019-03-20T06:03:49.118Z,102011.36
2019-03-20T06:06:20.508Z,102009.69
2019-03-20T06:08:51.685Z,102013.16
2019-03-20T06:11:23.323Z,102010.57
2019-03-20T06:13:59.018Z,102010.00
2019-03-20T06:16:30.672Z,102013.54
2019-03-20T06:19:02.216Z,102019.56
2019-03-20T06:21:33.829Z,102023.44
2019-03-20T06:24:05.188Z,102018.56
2019-03-20T06:26:38.804Z,102019.83
2019-03-20T06:29:10.123Z,102019.42
2019-03-20T06:31:43.880Z,102014.30
2019-03-20T06:34:15.308Z,102012.64
2019-03-20T06:36:46.836Z,102010.50
2019-03-20T06:39:17.932Z,102012.23
2019-03-20T06:41:49.256Z,102010.97
2019-03-20T06:44:20.577Z,102000.97
2019-03-20T06:46:52.287Z,102006.17
2019-03-20T06:49:23.917Z,102012.27
2019-03-20T06:51:56.486Z,102012.23
2019-03-20T06:54:28.161Z,102000.95
2019-03-20T06:57:01.900Z,102007.90
2019-03-20T06:59:39.040Z,102006.59
2019-03-20T07:02:10.365Z,102007.81
2019-03-20T07:05:04.449Z,102000.30
2019-03-20T07:07:44.188Z,102003.33
2019-03-20T07:10:19.060Z,102006.84
2019-03-20T07:12:50.434Z,102003.48
2019-03-20T07:15:21.586Z,102010.07
2019-03-20T07:17:52.885Z,102015.23
2019-03-20T07:20:24.303Z,102013.48
2019-03-20T07:22:56.106Z,102009.92
2019-03-20T07:25:30.090Z,102020.89
2019-03-20T07:28:01.482Z,102019.53
2019-03-20T07:30:33.207Z,102017.72
2019-03-20T07:33:04.696Z,102018.58
2019-03-20T07:35:35.835Z,102021.58
2019-03-20T07:38:07.364Z,102013.76
2019-03-20T07:40:38.478Z,102013.59
2019-03-20T07:43:09.835Z,102007.08
2019-03-20T07:45:40.993Z,102007.46
2019-03-20T07:48:21.628Z,102007.36
2019-03-20T07:50:45.300Z,102012.06
2019-03-20T07:53:18.791Z,102006.03
2019-03-20T07:55:51.910Z,101998.58
2019-03-20T07:58:25.081Z,101999.44
2019-03-20T08:00:56.997Z,101995.77
2019-03-20T08:03:30.137Z,102001.23
2019-03-20T08:06:03.495Z,101997.45
2019-03-20T08:08:35.827Z,101998.33
2019-03-20T08:11:06.972Z,101990.37
2019-03-20T08:13:38.451Z,101991.47
2019-03-20T08:16:10.094Z,101992.21
2019-03-20T08:18:41.375Z,101987.41
2019-03-20T08:21:12.643Z,101997.33
2019-03-20T08:23:44.502Z,101988.35
2019-03-20T08:26:15.652Z,101986.78
2019-03-20T08:28:47.980Z,101986.63
2019-03-20T08:31:19.202Z,101975.81
2019-03-20T08:33:53.528Z,101981.43
2019-03-20T08:36:25.028Z,101971.72
2019-03-20T08:38:56.518Z,101975.99
2019-03-20T08:41:29.273Z,101970.23
2019-03-20T08:44:01.045Z,101968.42
2019-03-20T08:46:32.331Z,101973.27
2019-03-20T08:49:03.603Z,101972.09
2019-03-20T08:51:34.985Z,101970.27
2019-03-20T08:54:06.490Z,101974.03
2019-03-20T08:56:37.627Z,101979.26
2019-03-20T08:59:09.606Z,101979.02
2019-03-20T09:01:41.120Z,101971.63
2019-03-20T09:04:13.557Z,101972.27
2019-03-20T09:06:44.814Z,101976.40
2019-03-20T09:09:16.171Z,101972.50
2019-03-20T09:11:47.860Z,101975.95
2019-03-20T09:14:19.223Z,101966.44
2019-03-20T09:16:50.777Z,101961.91
2019-03-20T09:19:24.041Z,101959.14
2019-03-20T09:21:57.718Z,101955.91
2019-03-20T09:24:31.422Z,101962.03
2019-03-20T09:27:03.019Z,101964.78
2019-03-20T09:29:36.255Z,101964.63
2019-03-20T09:32:08.165Z,101961.67
2019-03-20T09:34:40.560Z,101963.35
2019-03-20T09:37:12.117Z,101965.41
2019-03-20T09:39:45.066Z,101958.09
2019-03-20T09:42:16.451Z,101962.95
2019-03-20T09:44:48.146Z,101965.43
2019-03-20T09:47:20.131Z,101959.44
2019-03-20T09:49:51.575Z,101959.86
2019-03-20T09:52:22.879Z,101955.63
2019-03-20T09:54:54.458Z,101950.67
2019-03-20T09:57:26.202Z,101952.16
2019-03-20T09:59:58.029Z,101953.19
2019-03-20T10:02:31.017Z,101952.98
2019-03-20T10:05:04.197Z,101953.68
2019-03-20T10:07:35.561Z,101960.14
2019-03-20T10:10:25.071Z,101958.16
2019-03-20T10:13:07.967Z,101950.03
2019-03-20T10:15:39.507Z,101949.72
2019-03-20T10:18:11.487Z,101953.53
2019-03-20T10:20:42.758Z,101948.56
2019-03-20T10:23:14.018Z,101948.61
2019-03-20T10:25:45.327Z,101944.94
2019-03-20T10:28:16.484Z,101942.84
2019-03-20T10:30:47.755Z,101942.64
2019-03-20T10:33:19.147Z,101939.63
2019-03-20T10:35:50.758Z,101934.97
2019-03-20T10:38:22.033Z,101936.48
2019-03-20T10:40:53.459Z,101932.55
2019-03-20T10:43:25.545Z,101929.96
2019-03-20T10:45:56.947Z,101926.91
2019-03-20T10:48:28.120Z,101929.95
2019-03-20T10:50:59.490Z,101929.04
2019-03-20T10:53:30.994Z,101925.47
2019-03-20T10:56:02.405Z,101918.83
2019-03-20T10:58:33.817Z,101917.34
2019-03-20T11:01:05.193Z,101914.80
2019-03-20T11:03:36.743Z,101916.58
2019-03-20T11:06:08.336Z,101911.23
2019-03-20T11:08:40.677Z,101913.50
2019-03-20T11:11:12.489Z,101908.39
2019-03-20T11:13:43.816Z,101908.64
2019-03-20T11:16:15.514Z,101906.05
2019-03-20T11:18:48.481Z,101910.20
2019-03-20T11:21:21.400Z,101909.36
2019-03-20T11:23:54.461Z,101903.41
2019-03-20T11:26:26.695Z,101903.94
2019-03-20T11:28:58.722Z,101897.62
2019-03-20T11:31:31.118Z,101899.80
2019-03-20T11:34:03.716Z,101894.08
2019-03-20T11:36:35.167Z,101893.52
2019-03-20T11:39:08.864Z,101886.20
2019-03-20T11:41:40.358Z,101887.92
2019-03-20T11:44:13.231Z,101884.52
2019-03-20T11:46:44.913Z,101886.43
2019-03-20T11:49:16.168Z,101880.85
2019-03-20T11:51:47.541Z,101878.42
2019-03-20T11:54:19.680Z,101870.47
2019-03-20T11:56:51.109Z,101867.84
2019-03-20T11:59:24.185Z,101876.42
2019-03-20T12:01:55.635Z,101871.13
2019-03-20T12:04:28.248Z,101869.47
2019-03-20T12:06:59.429Z,101871.13
2019-03-20T12:09:40.725Z,101862.72
2019-03-20T12:12:04.267Z,101867.27
2019-03-20T12:14:38.652Z,101865.13
2019-03-20T12:17:11.909Z,101863.61
2019-03-20T12:19:45.403Z,101862.97
2019-03-20T12:22:18.114Z,101858.70
2019-03-20T12:24:49.955Z,101856.98
2019-03-20T12:27:21.633Z,101848.89
2019-03-20T12:29:52.855Z,101854.36
2019-03-20T12:32:24.232Z,101853.43
2019-03-20T12:34:55.405Z,101849.45
2019-03-20T12:37:26.810Z,101849.06
2019-03-20T12:39:58.301Z,101841.97
2019-03-20T12:42:29.707Z,101841.09
2019-03-20T12:45:01.689Z,101846.20
2019-03-20T12:47:33.450Z,101844.16
2019-03-20T12:50:09.166Z,101843.36
2019-03-20T12:52:40.895Z,101841.68
2019-03-20T12:55:17.615Z,101841.03
2019-03-20T12:57:49.720Z,101842.28
2019-03-20T13:00:27.450Z,101839.25
2019-03-20T13:02:58.934Z,101831.14
2019-03-20T13:05:30.256Z,101833.64
2019-03-20T13:08:05.813Z,101834.50
2019-03-20T13:10:34.777Z,101829.31
2019-03-20T13:13:07.841Z,101829.31
2019-03-20T13:15:39.318Z,101823.72
2019-03-20T13:18:13.581Z,101828.30
2019-03-20T13:20:47.086Z,101822.72
2019-03-20T13:23:36.413Z,101820.55
2019-03-20T13:26:08.116Z,101815.52
2019-03-20T13:28:41.120Z,101814.83
2019-03-20T13:31:18.537Z,101806.34
2019-03-20T13:33:49.799Z,101807.64
2019-03-20T13:36:21.275Z,101803.95
2019-03-20T13:38:52.542Z,101801.86
2019-03-20T13:41:23.685Z,101796.81
2019-03-20T13:43:55.060Z,101795.80
2019-03-20T13:46:27.938Z,101799.98
2019-03-20T13:49:00.198Z,101792.47
2019-03-20T13:51:31.313Z,101792.78
2019-03-20T13:54:02.815Z,101787.86
2019-03-20T13:56:34.011Z,101792.39
2019-03-20T13:59:05.704Z,101788.48
2019-03-20T14:01:37.066Z,101794.84
2019-03-20T14:04:09.539Z,101792.31
2019-03-20T14:06:41.261Z,101785.76
2019-03-20T14:09:12.919Z,101782.26
2019-03-20T14:11:44.179Z,101786.92
2019-03-20T14:14:15.812Z,101780.89
2019-03-20T14:16:48.490Z,101784.48
2019-03-20T14:19:19.816Z,101790.39
2019-03-20T14:21:51.148Z,101784.62
2019-03-20T14:24:23.856Z,101781.50
2019-03-20T14:26:55.324Z,101785.91
2019-03-20T14:29:26.785Z,101782.84
2019-03-20T14:31:58.080Z,101787.62
2019-03-20T14:34:29.718Z,101786.53
2019-03-20T14:37:02.278Z,101782.55
2019-03-20T14:39:33.614Z,101787.06
2019-03-20T14:42:05.955Z,101783.28
2019-03-20T14:44:37.932Z,101782.97
2019-03-20T14:47:09.283Z,101779.73
2019-03-20T14:49:43.187Z,101783.38
2019-03-20T14:52:14.599Z,101780.72
2019-03-20T14:54:46.808Z,101783.53
2019-03-20T14:57:18.402Z,101776.87
2019-03-20T14:59:53.143Z,101782.18
2019-03-20T15:02:25.138Z,101785.65
2019-03-20T15:04:56.697Z,101780.77
2019-03-20T15:07:28.151Z,101776.28
2019-03-20T15:10:01.352Z,101779.20
2019-03-20T15:12:34.323Z,101783.91
2019-03-20T15:15:24.310Z,101783.78
2019-03-20T15:17:56.352Z,101787.16
2019-03-20T15:20:28.509Z,101796.55
2019-03-20T15:23:01.693Z,101810.41
2019-03-20T15:25:35.043Z,101808.70
2019-03-20T15:28:06.335Z,101822.18
2019-03-20T15:30:38.214Z,101819.99
2019-03-20T15:33:09.557Z,101822.50
2019-03-20T15:35:42.657Z,101824.28
2019-03-20T15:38:14.940Z,101826.68
2019-03-20T15:40:55.910Z,101826.92
2019-03-20T15:43:20.329Z,101830.21
2019-03-20T15:45:52.947Z,101830.35
2019-03-20T15:48:24.233Z,101845.72
2019-03-20T15:50:55.641Z,101846.02
2019-03-20T15:53:27.188Z,101853.57
2019-03-20T15:55:58.654Z,101857.78
2019-03-20T15:58:30.194Z,101867.63
2019-03-20T16:01:03.062Z,101874.17
2019-03-20T16:03:43.140Z,101885.98
2019-03-20T16:06:14.474Z,101884.47
2019-03-20T16:08:46.178Z,101889.48
2019-03-20T16:11:19.536Z,101900.27
2019-03-20T16:13:50.748Z,101905.77
2019-03-20T16:16:21.992Z,101908.73
2019-03-20T16:18:53.724Z,101919.25
2019-03-20T16:21:25.268Z,101910.73
2019-03-20T16:23:58.068Z,101920.41
2019-03-20T16:26:32.048Z,101920.80
2019-03-20T16:29:05.811Z,101923.58
2019-03-20T16:31:38.336Z,101924.61
2019-03-20T16:34:11.837Z,101921.70
2019-03-20T16:36:43.417Z,101939.60
2019-03-20T16:39:14.903Z,101941.70
2019-03-20T16:41:49.243Z,101937.34
2019-03-20T16:44:20.570Z,101942.01
2019-03-20T16:46:52.016Z,101951.52
2019-03-20T16:49:23.294Z,101953.94
2019-03-20T16:51:56.341Z,101945.80
2019-03-20T16:54:28.012Z,101946.84
2019-03-20T16:56:59.900Z,101952.05
2019-03-20T16:59:31.662Z,101955.22
2019-03-20T17:02:04.551Z,101958.82
2019-03-20T17:04:35.861Z,101961.19
2019-03-20T17:07:07.216Z,101961.41
2019-03-20T17:09:38.492Z,101974.72
2019-03-20T17:12:14.931Z,101974.91
2019-03-20T17:14:46.292Z,101975.34
2019-03-20T17:17:17.605Z,101981.09
2019-03-20T17:19:49.513Z,101981.43
2019-03-20T17:22:20.942Z,101978.48
2019-03-20T17:24:52.238Z,101983.52
2019-03-20T17:27:23.665Z,101977.43
2019-03-20T17:29:56.916Z,101980.75
2019-03-20T17:32:28.530Z,101978.43
2019-03-20T17:35:00.454Z,101977.56
2019-03-20T17:37:32.678Z,101978.16
2019-03-20T17:40:06.963Z,101978.89
2019-03-20T17:42:38.114Z,101980.20
2019-03-20T17:45:14.764Z,101989.02
2019-03-20T17:47:46.044Z,101972.75
2019-03-20T17:50:20.736Z,101977.41
2019-03-20T17:52:52.215Z,101983.50
2019-03-20T17:55:24.902Z,101977.98
2019-03-20T17:57:57.882Z,101991.05
2019-03-20T18:00:50.070Z,101993.45
2019-03-20T18:03:21.613Z,101994.03
2019-03-20T18:05:53.166Z,101992.47
2019-03-20T18:08:26.254Z,101993.83
2019-03-20T18:10:57.921Z,101990.91
2019-03-20T18:13:29.305Z,101992.51
2019-03-20T18:16:00.610Z,101996.06
2019-03-20T18:18:32.128Z,101998.01
2019-03-20T18:21:04.677Z,102007.72
2019-03-20T18:23:36.458Z,101998.58
2019-03-20T18:26:07.919Z,102005.81
2019-03-20T18:28:40.928Z,102015.08
2019-03-20T18:31:12.426Z,102020.06
2019-03-20T18:33:44.232Z,102021.84
2019-03-20T18:36:17.021Z,102026.78
2019-03-20T18:38:51.025Z,102031.31
2019-03-20T18:41:24.552Z,102028.39
2019-03-20T18:43:55.923Z,102029.30
2019-03-20T18:46:27.261Z,102023.34
2019-03-20T18:48:58.601Z,102032.71
2019-03-20T18:51:30.318Z,102033.98
2019-03-20T18:54:01.774Z,102032.26
2019-03-20T18:56:33.011Z,102035.91
2019-03-20T18:59:04.678Z,102038.12
2019-03-20T19:01:36.066Z,102043.02
2019-03-20T19:04:09.088Z,102042.57
2019-03-20T19:06:40.691Z,102035.36
2019-03-20T19:09:12.269Z,102043.20
2019-03-20T19:11:43.785Z,102051.89
2019-03-20T19:14:15.070Z,102059.78
2019-03-20T19:16:46.327Z,102060.61
2019-03-20T19:19:17.598Z,102060.23
2019-03-20T19:21:48.873Z,102056.35
2019-03-20T19:24:21.928Z,102067.47
2019-03-20T19:26:54.001Z,102061.09
2019-03-20T19:29:25.274Z,102058.05
2019-03-20T19:31:57.607Z,102051.09
2019-03-20T19:34:29.013Z,102045.39
2019-03-20T19:37:00.621Z,102048.09
2019-03-20T19:39:32.038Z,102050.53
2019-03-20T19:42:03.626Z,102054.02
2019-03-20T19:44:34.959Z,102055.24
2019-03-20T19:47:09.520Z,102048.98
2019-03-20T19:49:40.890Z,102052.61
2019-03-20T19:52:12.089Z,102057.87
2019-03-20T19:54:43.425Z,102065.31
2019-03-20T19:57:17.485Z,102056.94
2019-03-20T19:59:50.173Z,102059.28
2019-03-20T20:02:21.467Z,102067.16
2019-03-20T20:04:54.591Z,102072.67
2019-03-20T20:07:25.951Z,102069.15
2019-03-20T20:09:57.789Z,102071.88
2019-03-20T20:12:31.367Z,102073.70
2019-03-20T20:15:05.022Z,102073.70
2019-03-20T20:17:36.641Z,102075.02
2019-03-20T20:20:11.246Z,102074.19
2019-03-20T20:22:43.475Z,102081.17
2019-03-20T20:25:15.894Z,102077.73
2019-03-20T20:27:47.989Z,102078.67
2019-03-20T20:30:19.930Z,102079.12
2019-03-20T20:32:52.148Z,102082.09
2019-03-20T20:35:23.695Z,102076.58
2019-03-20T20:37:55.078Z,102072.61
2019-03-20T20:40:31.274Z,102073.92
2019-03-20T20:43:04.415Z,102075.69
2019-03-20T20:45:36.689Z,102076.55
2019-03-20T20:48:09.035Z,102077.86
2019-03-20T20:50:44.562Z,102076.07
2019-03-20T20:53:16.357Z,102075.27
2019-03-20T20:55:47.661Z,102076.04
2019-03-20T20:58:19.013Z,102074.73
2019-03-20T21:00:50.436Z,102073.00
2019-03-20T21:03:22.034Z,102071.36
2019-03-20T21:05:55.467Z,102071.83
2019-03-20T21:08:27.075Z,102071.00
2019-03-20T21:10:59.882Z,102070.94
2019-03-20T21:13:31.675Z,102068.31
2019-03-20T21:16:04.614Z,102067.98
2019-03-20T21:18:48.190Z,102063.09
2019-03-20T21:21:20.359Z,102063.14
2019-03-20T21:24:25.446Z,102068.47
2019-03-20T21:27:09.321Z,102067.09
2019-03-20T21:30:08.025Z,102068.88
2019-03-20T21:32:45.789Z,102066.28
2019-03-20T21:35:44.936Z,102067.98
2019-03-20T21:38:15.413Z,102072.84
2019-03-20T21:41:02.128Z,102074.49
2019-03-20T21:43:52.984Z,102077.98
2019-03-20T21:46:29.932Z,102072.52
2019-03-20T21:49:02.646Z,102068.13
2019-03-20T21:51:35.167Z,102076.02
2019-03-20T21:54:12.518Z,102081.98
2019-03-20T21:57:05.501Z,102078.97
2019-03-20T21:59:55.128Z,102083.81
2019-03-20T22:02:43.771Z,102080.70
2019-03-20T22:05:42.804Z,102082.05
2019-03-20T22:08:14.061Z,102084.67
2019-03-20T22:11:00.287Z,102090.45
2019-03-20T22:13:43.575Z,102096.69
2019-03-20T22:16:42.821Z,102095.85
2019-03-20T22:19:31.747Z,102098.00
2019-03-20T22:22:19.438Z,102105.56
2019-03-20T22:25:15.426Z,102103.76
2019-03-20T22:27:49.944Z,102104.13
2019-03-20T22:30:21.315Z,102102.41
2019-03-20T22:33:17.522Z,102104.13
2019-03-20T22:35:50.052Z,102114.60
2019-03-20T22:38:28.596Z,102107.67
2019-03-20T22:41:15.568Z,102109.91
2019-03-20T22:43:53.425Z,102107.56
2019-03-20T22:46:51.527Z,102109.04
2019-03-20T22:49:44.258Z,102111.30
2019-03-20T22:52:38.282Z,102107.75
2019-03-20T22:55:16.793Z,102108.23
2019-03-20T22:58:12.972Z,102113.16
2019-03-20T23:00:46.331Z,102120.51
2019-03-20T23:03:30.934Z,102124.00
2019-03-20T23:06:02.483Z,102127.08
2019-03-20T23:08:34.388Z,102122.22
2019-03-20T23:11:05.801Z,102122.70
2019-03-20T23:13:41.758Z,102119.25
2019-03-20T23:16:13.047Z,102120.98
2019-03-20T23:18:44.599Z,102117.13
2019-03-20T23:21:20.865Z,102123.66
2019-03-20T23:23:52.056Z,102115.86
2019-03-20T23:26:37.827Z,102111.06
2019-03-20T23:29:09.042Z,102116.30
2019-03-20T23:31:40.420Z,102116.30
2019-03-20T23:34:11.715Z,102113.28
2019-03-20T23:36:42.850Z,102105.80
2019-03-20T23:39:14.113Z,102100.21
2019-03-20T23:41:45.545Z,102102.78
2019-03-20T23:44:16.828Z,102092.31
2019-03-20T23:46:48.318Z,102097.58
2019-03-20T23:49:23.683Z,102095.80
2019-03-20T23:51:55.818Z,102097.58
2019-03-20T23:54:30.330Z,102092.67
2019-03-20T23:57:02.697Z,102088.84
2019-03-20T23:59:36.255Z,102082.33
